sensor_id;sensor_type;location;lat;lon;timestamp;P1;durP1;ratioP1;P2;durP2;ratioP2
7519;SDS011;3801;48.876;10.184;2022-09-01T00:02:33;21.83;;;14.87;;
7519;SDS011;3801;48.876;10.184;2022-09-01T00:07:37;22.40;;;14.87;;
7519;SDS011;3801;48.876;10.184;2022-09-01T00:12:42;23.50;;;15.40;;
7519;SDS011;3801;48.876;10.184;2022-09-01T00:17:46;25.00;;;16.40;;
7519;SDS011;3801;48.876;10.184;2022-09-01T00:22:50;21.13;;;14.43;;
7519;SDS011;3801;48.876;10.184;2022-09-01T00:27:55;24.93;;;15.93;;
7519;SDS011;3801;48.876;10.184;2022-09-01T00:33:01;27.03;;;17.23;;
7519;SDS011;3801;48.876;10.184;2022-09-01T00:38:04;28.17;;;17.03;;
7519;SDS011;3801;48.876;10.184;2022-09-01T00:43:13;29.13;;;17.80;;
7519;SDS011;3801;48.876;10.184;2022-09-01T00:48:17;30.90;;;18.10;;
7519;SDS011;3801;48.876;10.184;2022-09-01T00:53:22;28.93;;;18.37;;
7519;SDS011;3801;48.876;10.184;2022-09-01T00:58:27;32.27;;;18.60;;
7519;SDS011;3801;48.876;10.184;2022-09-01T01:03:31;31.23;;;19.73;;
7519;SDS011;3801;48.876;10.184;2022-09-01T01:08:35;30.53;;;19.13;;
7519;SDS011;3801;48.876;10.184;2022-09-01T01:13:47;27.93;;;18.00;;
7519;SDS011;3801;48.876;10.184;2022-09-01T01:18:52;29.77;;;18.30;;
7519;SDS011;3801;48.876;10.184;2022-09-01T01:23:59;29.63;;;18.30;;
7519;SDS011;3801;48.876;10.184;2022-09-01T01:29:05;28.50;;;18.10;;
7519;SDS011;3801;48.876;10.184;2022-09-01T01:34:11;31.17;;;18.70;;
7519;SDS011;3801;48.876;10.184;2022-09-01T01:39:18;30.77;;;19.30;;
7519;SDS011;3801;48.876;10.184;2022-09-01T01:44:25;33.03;;;20.20;;
7519;SDS011;3801;48.876;10.184;2022-09-01T01:49:34;31.00;;;18.27;;
7519;SDS011;3801;48.876;10.184;2022-09-01T01:54:38;26.40;;;17.50;;
7519;SDS011;3801;48.876;10.184;2022-09-01T01:59:44;25.53;;;16.10;;
7519;SDS011;3801;48.876;10.184;2022-09-01T02:04:48;25.80;;;16.33;;
7519;SDS011;3801;48.876;10.184;2022-09-01T02:09:51;31.00;;;17.67;;
7519;SDS011;3801;48.876;10.184;2022-09-01T02:14:57;27.63;;;17.27;;
7519;SDS011;3801;48.876;10.184;2022-09-01T02:20:01;26.93;;;17.07;;
7519;SDS011;3801;48.876;10.184;2022-09-01T02:25:05;29.10;;;18.20;;
7519;SDS011;3801;48.876;10.184;2022-09-01T02:30:11;28.73;;;17.33;;
7519;SDS011;3801;48.876;10.184;2022-09-01T02:35:14;25.87;;;17.70;;
7519;SDS011;3801;48.876;10.184;2022-09-01T02:40:20;29.13;;;18.40;;
7519;SDS011;3801;48.876;10.184;2022-09-01T02:45:25;31.13;;;19.60;;
7519;SDS011;3801;48.876;10.184;2022-09-01T02:50:30;30.23;;;19.17;;
7519;SDS011;3801;48.876;10.184;2022-09-01T02:55:34;28.83;;;18.07;;
7519;SDS011;3801;48.876;10.184;2022-09-01T03:00:39;29.27;;;18.33;;
7519;SDS011;3801;48.876;10.184;2022-09-01T03:05:43;28.00;;;18.40;;
7519;SDS011;3801;48.876;10.184;2022-09-01T03:10:48;33.67;;;18.63;;
7519;SDS011;3801;48.876;10.184;2022-09-01T03:15:54;31.93;;;18.83;;
7519;SDS011;3801;48.876;10.184;2022-09-01T03:20:58;30.37;;;19.17;;
7519;SDS011;3801;48.876;10.184;2022-09-01T03:26:03;31.77;;;18.67;;
7519;SDS011;3801;48.876;10.184;2022-09-01T03:31:08;28.47;;;17.43;;
7519;SDS011;3801;48.876;10.184;2022-09-01T03:36:12;25.73;;;16.30;;
7519;SDS011;3801;48.876;10.184;2022-09-01T03:41:21;25.77;;;15.77;;
7519;SDS011;3801;48.876;10.184;2022-09-01T03:46:28;28.37;;;16.80;;
7519;SDS011;3801;48.876;10.184;2022-09-01T03:51:39;27.07;;;16.57;;
7519;SDS011;3801;48.876;10.184;2022-09-01T03:56:43;31.70;;;17.97;;
7519;SDS011;3801;48.876;10.184;2022-09-01T04:01:52;29.07;;;18.07;;
7519;SDS011;3801;48.876;10.184;2022-09-01T04:06:55;27.53;;;17.17;;
7519;SDS011;3801;48.876;10.184;2022-09-01T04:11:59;27.10;;;16.67;;
7519;SDS011;3801;48.876;10.184;2022-09-01T04:17:05;29.20;;;18.03;;
7519;SDS011;3801;48.876;10.184;2022-09-01T04:22:31;26.53;;;16.90;;
7519;SDS011;3801;48.876;10.184;2022-09-01T04:27:39;24.10;;;15.97;;
7519;SDS011;3801;48.876;10.184;2022-09-01T04:32:44;22.00;;;15.23;;
7519;SDS011;3801;48.876;10.184;2022-09-01T04:37:48;24.53;;;16.43;;
7519;SDS011;3801;48.876;10.184;2022-09-01T04:42:51;22.03;;;14.60;;
7519;SDS011;3801;48.876;10.184;2022-09-01T04:47:56;21.23;;;15.53;;
7519;SDS011;3801;48.876;10.184;2022-09-01T04:53:02;21.03;;;15.20;;
7519;SDS011;3801;48.876;10.184;2022-09-01T04:58:21;23.20;;;16.77;;
7519;SDS011;3801;48.876;10.184;2022-09-01T05:03:27;29.33;;;17.60;;
7519;SDS011;3801;48.876;10.184;2022-09-01T05:08:48;29.70;;;19.03;;
7519;SDS011;3801;48.876;10.184;2022-09-01T05:14:13;34.47;;;20.80;;
7519;SDS011;3801;48.876;10.184;2022-09-01T05:19:21;34.03;;;22.07;;
7519;SDS011;3801;48.876;10.184;2022-09-01T05:24:32;33.30;;;20.77;;
7519;SDS011;3801;48.876;10.184;2022-09-01T05:29:44;29.07;;;20.00;;
7519;SDS011;3801;48.876;10.184;2022-09-01T05:34:49;31.00;;;20.67;;
7519;SDS011;3801;48.876;10.184;2022-09-01T05:39:56;28.37;;;19.97;;
7519;SDS011;3801;48.876;10.184;2022-09-01T05:45:01;31.77;;;19.20;;
7519;SDS011;3801;48.876;10.184;2022-09-01T05:50:07;29.80;;;19.00;;
7519;SDS011;3801;48.876;10.184;2022-09-01T05:55:15;29.23;;;18.77;;
7519;SDS011;3801;48.876;10.184;2022-09-01T06:00:20;25.57;;;18.17;;
7519;SDS011;3801;48.876;10.184;2022-09-01T06:05:25;24.70;;;17.93;;
7519;SDS011;3801;48.876;10.184;2022-09-01T06:10:29;24.57;;;17.30;;
7519;SDS011;3801;48.876;10.184;2022-09-01T06:15:33;23.00;;;17.07;;
7519;SDS011;3801;48.876;10.184;2022-09-01T06:20:41;24.27;;;16.07;;
7519;SDS011;3801;48.876;10.184;2022-09-01T06:25:45;21.43;;;15.73;;
7519;SDS011;3801;48.876;10.184;2022-09-01T06:30:51;20.57;;;14.90;;
7519;SDS011;3801;48.876;10.184;2022-09-01T06:35:56;25.20;;;15.70;;
7519;SDS011;3801;48.876;10.184;2022-09-01T06:41:05;23.13;;;15.60;;
7519;SDS011;3801;48.876;10.184;2022-09-01T06:46:14;25.53;;;16.33;;
7519;SDS011;3801;48.876;10.184;2022-09-01T06:51:20;21.70;;;15.03;;
7519;SDS011;3801;48.876;10.184;2022-09-01T06:56:27;24.70;;;15.73;;
7519;SDS011;3801;48.876;10.184;2022-09-01T07:01:33;21.80;;;16.60;;
7519;SDS011;3801;48.876;10.184;2022-09-01T07:06:39;22.03;;;16.23;;
7519;SDS011;3801;48.876;10.184;2022-09-01T07:12:41;22.83;;;14.40;;
7519;SDS011;3801;48.876;10.184;2022-09-01T07:18:07;17.57;;;13.90;;
7519;SDS011;3801;48.876;10.184;2022-09-01T07:23:13;16.00;;;11.13;;
7519;SDS011;3801;48.876;10.184;2022-09-01T07:28:17;13.63;;;9.67;;
7519;SDS011;3801;48.876;10.184;2022-09-01T07:33:26;11.50;;;9.80;;
7519;SDS011;3801;48.876;10.184;2022-09-01T07:38:52;12.10;;;8.60;;
7519;SDS011;3801;48.876;10.184;2022-09-01T07:44:26;10.57;;;8.33;;
7519;SDS011;3801;48.876;10.184;2022-09-01T07:49:49;12.57;;;9.20;;
7519;SDS011;3801;48.876;10.184;2022-09-01T07:55:14;14.07;;;10.50;;
7519;SDS011;3801;48.876;10.184;2022-09-01T08:00:18;16.20;;;11.13;;
7519;SDS011;3801;48.876;10.184;2022-09-01T08:05:28;13.30;;;9.73;;
7519;SDS011;3801;48.876;10.184;2022-09-01T08:10:38;10.33;;;8.33;;
7519;SDS011;3801;48.876;10.184;2022-09-01T08:15:42;9.87;;;7.57;;
7519;SDS011;3801;48.876;10.184;2022-09-01T08:21:06;9.37;;;7.23;;
7519;SDS011;3801;48.876;10.184;2022-09-01T08:26:22;7.80;;;5.97;;
7519;SDS011;3801;48.876;10.184;2022-09-01T08:31:27;7.80;;;6.10;;
7519;SDS011;3801;48.876;10.184;2022-09-01T08:36:33;9.43;;;6.20;;
7519;SDS011;3801;48.876;10.184;2022-09-01T08:41:41;9.30;;;7.00;;
7519;SDS011;3801;48.876;10.184;2022-09-01T08:46:51;8.57;;;6.80;;
7519;SDS011;3801;48.876;10.184;2022-09-01T08:51:58;6.40;;;5.00;;
7519;SDS011;3801;48.876;10.184;2022-09-01T08:57:05;8.97;;;5.87;;
7519;SDS011;3801;48.876;10.184;2022-09-01T09:02:45;6.93;;;5.97;;
7519;SDS011;3801;48.876;10.184;2022-09-01T09:07:57;7.27;;;6.07;;
7519;SDS011;3801;48.876;10.184;2022-09-01T09:13:10;6.70;;;5.87;;
7519;SDS011;3801;48.876;10.184;2022-09-01T09:18:18;7.73;;;5.80;;
7519;SDS011;3801;48.876;10.184;2022-09-01T09:23:41;6.87;;;5.33;;
7519;SDS011;3801;48.876;10.184;2022-09-01T09:28:47;8.30;;;5.50;;
7519;SDS011;3801;48.876;10.184;2022-09-01T09:33:51;7.03;;;5.63;;
7519;SDS011;3801;48.876;10.184;2022-09-01T09:39:03;9.00;;;5.80;;
7519;SDS011;3801;48.876;10.184;2022-09-01T09:44:15;7.17;;;6.27;;
7519;SDS011;3801;48.876;10.184;2022-09-01T09:49:20;6.93;;;5.57;;
7519;SDS011;3801;48.876;10.184;2022-09-01T09:54:38;6.53;;;4.87;;
7519;SDS011;3801;48.876;10.184;2022-09-01T09:59:43;5.10;;;4.50;;
7519;SDS011;3801;48.876;10.184;2022-09-01T10:05:20;5.27;;;4.63;;
7519;SDS011;3801;48.876;10.184;2022-09-01T10:10:26;7.03;;;5.00;;
7519;SDS011;3801;48.876;10.184;2022-09-01T10:15:31;9.13;;;5.50;;
7519;SDS011;3801;48.876;10.184;2022-09-01T10:20:36;5.20;;;4.70;;
7519;SDS011;3801;48.876;10.184;2022-09-01T10:25:40;5.67;;;5.07;;
7519;SDS011;3801;48.876;10.184;2022-09-01T10:30:46;6.30;;;5.53;;
7519;SDS011;3801;48.876;10.184;2022-09-01T10:35:52;5.80;;;5.10;;
7519;SDS011;3801;48.876;10.184;2022-09-01T10:40:56;6.00;;;5.23;;
7519;SDS011;3801;48.876;10.184;2022-09-01T10:51:53;5.67;;;4.47;;
7519;SDS011;3801;48.876;10.184;2022-09-01T10:56:57;4.73;;;4.00;;
7519;SDS011;3801;48.876;10.184;2022-09-01T11:02:11;4.63;;;3.73;;
7519;SDS011;3801;48.876;10.184;2022-09-01T11:07:32;4.37;;;3.97;;
7519;SDS011;3801;48.876;10.184;2022-09-01T11:13:03;5.13;;;4.17;;
7519;SDS011;3801;48.876;10.184;2022-09-01T11:18:10;4.80;;;4.30;;
7519;SDS011;3801;48.876;10.184;2022-09-01T11:23:22;3.93;;;3.47;;
7519;SDS011;3801;48.876;10.184;2022-09-01T11:28:38;3.83;;;3.50;;
7519;SDS011;3801;48.876;10.184;2022-09-01T11:33:45;4.40;;;4.00;;
7519;SDS011;3801;48.876;10.184;2022-09-01T11:38:52;4.77;;;4.37;;
7519;SDS011;3801;48.876;10.184;2022-09-01T11:43:56;5.27;;;4.20;;
7519;SDS011;3801;48.876;10.184;2022-09-01T11:49:02;4.57;;;4.03;;
7519;SDS011;3801;48.876;10.184;2022-09-01T11:54:08;4.00;;;3.60;;
7519;SDS011;3801;48.876;10.184;2022-09-01T11:59:12;4.33;;;3.93;;
7519;SDS011;3801;48.876;10.184;2022-09-01T12:04:19;5.00;;;4.17;;
7519;SDS011;3801;48.876;10.184;2022-09-01T12:09:31;7.70;;;4.43;;
7519;SDS011;3801;48.876;10.184;2022-09-01T12:14:35;6.07;;;4.73;;
7519;SDS011;3801;48.876;10.184;2022-09-01T12:25:19;8.70;;;5.43;;
7519;SDS011;3801;48.876;10.184;2022-09-01T12:30:24;4.70;;;4.20;;
7519;SDS011;3801;48.876;10.184;2022-09-01T12:35:28;6.13;;;4.83;;
7519;SDS011;3801;48.876;10.184;2022-09-01T12:40:33;6.83;;;5.37;;
7519;SDS011;3801;48.876;10.184;2022-09-01T12:45:39;4.70;;;4.30;;
7519;SDS011;3801;48.876;10.184;2022-09-01T12:50:43;5.80;;;5.10;;
7519;SDS011;3801;48.876;10.184;2022-09-01T12:55:59;6.13;;;4.50;;
7519;SDS011;3801;48.876;10.184;2022-09-01T13:01:05;6.17;;;4.60;;
7519;SDS011;3801;48.876;10.184;2022-09-01T13:06:17;5.70;;;3.77;;
7519;SDS011;3801;48.876;10.184;2022-09-01T13:11:22;5.63;;;4.70;;
7519;SDS011;3801;48.876;10.184;2022-09-01T13:16:26;7.33;;;4.73;;
7519;SDS011;3801;48.876;10.184;2022-09-01T13:21:30;5.13;;;4.37;;
7519;SDS011;3801;48.876;10.184;2022-09-01T13:26:35;5.47;;;4.97;;
7519;SDS011;3801;48.876;10.184;2022-09-01T13:31:38;5.13;;;4.63;;
7519;SDS011;3801;48.876;10.184;2022-09-01T13:37:05;4.50;;;4.07;;
7519;SDS011;3801;48.876;10.184;2022-09-01T13:42:10;4.13;;;3.73;;
7519;SDS011;3801;48.876;10.184;2022-09-01T13:47:14;3.97;;;3.57;;
7519;SDS011;3801;48.876;10.184;2022-09-01T13:52:33;4.40;;;4.00;;
7519;SDS011;3801;48.876;10.184;2022-09-01T13:57:38;4.07;;;3.77;;
7519;SDS011;3801;48.876;10.184;2022-09-01T14:02:43;4.30;;;3.90;;
7519;SDS011;3801;48.876;10.184;2022-09-01T14:07:50;4.87;;;4.40;;
7519;SDS011;3801;48.876;10.184;2022-09-01T14:12:54;4.47;;;3.83;;
7519;SDS011;3801;48.876;10.184;2022-09-01T14:17:58;5.33;;;4.63;;
7519;SDS011;3801;48.876;10.184;2022-09-01T14:23:02;4.40;;;3.93;;
7519;SDS011;3801;48.876;10.184;2022-09-01T14:28:07;4.67;;;4.27;;
7519;SDS011;3801;48.876;10.184;2022-09-01T14:33:11;4.67;;;3.70;;
7519;SDS011;3801;48.876;10.184;2022-09-01T14:38:14;4.53;;;3.60;;
7519;SDS011;3801;48.876;10.184;2022-09-01T14:43:20;3.50;;;3.20;;
7519;SDS011;3801;48.876;10.184;2022-09-01T14:48:23;5.27;;;3.20;;
7519;SDS011;3801;48.876;10.184;2022-09-01T14:53:27;4.10;;;3.67;;
7519;SDS011;3801;48.876;10.184;2022-09-01T14:58:32;4.87;;;3.20;;
7519;SDS011;3801;48.876;10.184;2022-09-01T15:03:35;3.73;;;3.30;;
7519;SDS011;3801;48.876;10.184;2022-09-01T15:08:39;4.30;;;3.87;;
7519;SDS011;3801;48.876;10.184;2022-09-01T15:13:44;4.43;;;3.70;;
7519;SDS011;3801;48.876;10.184;2022-09-01T15:18:47;6.37;;;3.23;;
7519;SDS011;3801;48.876;10.184;2022-09-01T15:23:51;3.37;;;2.90;;
7519;SDS011;3801;48.876;10.184;2022-09-01T15:28:56;3.80;;;3.17;;
7519;SDS011;3801;48.876;10.184;2022-09-01T15:34:01;4.97;;;3.20;;
7519;SDS011;3801;48.876;10.184;2022-09-01T15:39:05;4.90;;;3.47;;
7519;SDS011;3801;48.876;10.184;2022-09-01T15:44:10;4.43;;;4.03;;
7519;SDS011;3801;48.876;10.184;2022-09-01T15:49:13;3.80;;;3.20;;
7519;SDS011;3801;48.876;10.184;2022-09-01T15:54:18;4.17;;;3.33;;
7519;SDS011;3801;48.876;10.184;2022-09-01T15:59:23;3.70;;;3.40;;
7519;SDS011;3801;48.876;10.184;2022-09-01T16:04:30;4.93;;;4.00;;
7519;SDS011;3801;48.876;10.184;2022-09-01T16:09:33;3.83;;;3.40;;
7519;SDS011;3801;48.876;10.184;2022-09-01T16:14:39;4.47;;;2.97;;
7519;SDS011;3801;48.876;10.184;2022-09-01T16:19:46;4.97;;;3.23;;
7519;SDS011;3801;48.876;10.184;2022-09-01T16:24:52;3.80;;;3.00;;
7519;SDS011;3801;48.876;10.184;2022-09-01T16:29:58;3.40;;;3.07;;
7519;SDS011;3801;48.876;10.184;2022-09-01T16:35:04;3.00;;;2.70;;
7519;SDS011;3801;48.876;10.184;2022-09-01T16:40:10;7.43;;;3.07;;
7519;SDS011;3801;48.876;10.184;2022-09-01T16:45:20;3.27;;;2.97;;
7519;SDS011;3801;48.876;10.184;2022-09-01T16:50:30;3.03;;;2.73;;
7519;SDS011;3801;48.876;10.184;2022-09-01T16:55:37;4.30;;;3.20;;
7519;SDS011;3801;48.876;10.184;2022-09-01T17:00:52;3.57;;;3.00;;
7519;SDS011;3801;48.876;10.184;2022-09-01T17:06:01;4.30;;;3.63;;
7519;SDS011;3801;48.876;10.184;2022-09-01T17:11:06;3.20;;;2.90;;
7519;SDS011;3801;48.876;10.184;2022-09-01T17:16:17;4.20;;;3.27;;
7519;SDS011;3801;48.876;10.184;2022-09-01T17:21:25;4.00;;;3.30;;
7519;SDS011;3801;48.876;10.184;2022-09-01T17:26:30;3.67;;;3.37;;
7519;SDS011;3801;48.876;10.184;2022-09-01T17:31:38;6.67;;;3.53;;
7519;SDS011;3801;48.876;10.184;2022-09-01T17:36:46;4.03;;;3.30;;
7519;SDS011;3801;48.876;10.184;2022-09-01T17:41:52;4.03;;;3.63;;
7519;SDS011;3801;48.876;10.184;2022-09-01T17:46:59;4.00;;;3.60;;
7519;SDS011;3801;48.876;10.184;2022-09-01T17:52:08;4.43;;;4.03;;
7519;SDS011;3801;48.876;10.184;2022-09-01T17:57:17;4.20;;;3.70;;
7519;SDS011;3801;48.876;10.184;2022-09-01T18:02:33;4.67;;;4.20;;
7519;SDS011;3801;48.876;10.184;2022-09-01T18:07:47;4.37;;;3.97;;
7519;SDS011;3801;48.876;10.184;2022-09-01T18:12:54;4.30;;;3.90;;
7519;SDS011;3801;48.876;10.184;2022-09-01T18:18:04;6.63;;;4.07;;
7519;SDS011;3801;48.876;10.184;2022-09-01T18:23:09;5.37;;;4.30;;
7519;SDS011;3801;48.876;10.184;2022-09-01T18:28:13;6.70;;;4.00;;
7519;SDS011;3801;48.876;10.184;2022-09-01T18:33:22;4.77;;;3.93;;
7519;SDS011;3801;48.876;10.184;2022-09-01T18:38:27;4.77;;;4.17;;
7519;SDS011;3801;48.876;10.184;2022-09-01T18:43:35;4.70;;;4.30;;
7519;SDS011;3801;48.876;10.184;2022-09-01T18:48:46;4.13;;;3.67;;
7519;SDS011;3801;48.876;10.184;2022-09-01T18:53:52;5.47;;;4.70;;
7519;SDS011;3801;48.876;10.184;2022-09-01T18:59:02;4.50;;;4.00;;
7519;SDS011;3801;48.876;10.184;2022-09-01T19:04:12;4.73;;;4.33;;
7519;SDS011;3801;48.876;10.184;2022-09-01T19:09:20;5.47;;;4.47;;
7519;SDS011;3801;48.876;10.184;2022-09-01T19:14:28;5.10;;;4.60;;
7519;SDS011;3801;48.876;10.184;2022-09-01T19:19:39;5.83;;;5.10;;
7519;SDS011;3801;48.876;10.184;2022-09-01T19:24:46;5.10;;;4.33;;
7519;SDS011;3801;48.876;10.184;2022-09-01T19:29:51;4.87;;;4.13;;
7519;SDS011;3801;48.876;10.184;2022-09-01T19:35:02;13.23;;;4.83;;
7519;SDS011;3801;48.876;10.184;2022-09-01T19:40:07;7.03;;;4.40;;
7519;SDS011;3801;48.876;10.184;2022-09-01T19:45:12;5.20;;;4.50;;
7519;SDS011;3801;48.876;10.184;2022-09-01T19:50:21;7.30;;;4.87;;
7519;SDS011;3801;48.876;10.184;2022-09-01T19:55:29;6.90;;;5.03;;
7519;SDS011;3801;48.876;10.184;2022-09-01T20:00:36;5.53;;;4.90;;
7519;SDS011;3801;48.876;10.184;2022-09-01T20:05:44;6.17;;;4.70;;
7519;SDS011;3801;48.876;10.184;2022-09-01T20:10:52;7.67;;;4.37;;
7519;SDS011;3801;48.876;10.184;2022-09-01T20:15:59;4.33;;;3.83;;
7519;SDS011;3801;48.876;10.184;2022-09-01T20:21:09;8.07;;;4.27;;
7519;SDS011;3801;48.876;10.184;2022-09-01T20:26:22;5.93;;;3.80;;
7519;SDS011;3801;48.876;10.184;2022-09-01T20:31:29;6.33;;;3.87;;
7519;SDS011;3801;48.876;10.184;2022-09-01T20:36:36;4.40;;;3.80;;
7519;SDS011;3801;48.876;10.184;2022-09-01T20:41:42;4.17;;;3.43;;
7519;SDS011;3801;48.876;10.184;2022-09-01T20:46:47;3.57;;;2.93;;
7519;SDS011;3801;48.876;10.184;2022-09-01T20:51:54;3.10;;;2.80;;
7519;SDS011;3801;48.876;10.184;2022-09-01T20:57:02;3.20;;;2.50;;
7519;SDS011;3801;48.876;10.184;2022-09-01T21:02:11;3.77;;;3.20;;
7519;SDS011;3801;48.876;10.184;2022-09-01T21:07:18;2.63;;;2.40;;
7519;SDS011;3801;48.876;10.184;2022-09-01T21:12:26;2.47;;;2.27;;
7519;SDS011;3801;48.876;10.184;2022-09-01T21:17:32;2.87;;;2.37;;
7519;SDS011;3801;48.876;10.184;2022-09-01T21:22:40;2.93;;;2.57;;
7519;SDS011;3801;48.876;10.184;2022-09-01T21:27:44;2.57;;;2.37;;
7519;SDS011;3801;48.876;10.184;2022-09-01T21:32:52;2.80;;;2.60;;
7519;SDS011;3801;48.876;10.184;2022-09-01T21:37:59;2.60;;;2.40;;
7519;SDS011;3801;48.876;10.184;2022-09-01T21:43:03;2.90;;;2.60;;
7519;SDS011;3801;48.876;10.184;2022-09-01T21:48:07;2.60;;;2.40;;
7519;SDS011;3801;48.876;10.184;2022-09-01T21:53:12;2.90;;;2.60;;
7519;SDS011;3801;48.876;10.184;2022-09-01T21:58:16;2.60;;;2.00;;
7519;SDS011;3801;48.876;10.184;2022-09-01T22:03:19;4.53;;;2.43;;
7519;SDS011;3801;48.876;10.184;2022-09-01T22:08:24;2.97;;;2.20;;
7519;SDS011;3801;48.876;10.184;2022-09-01T22:13:27;2.53;;;2.03;;
7519;SDS011;3801;48.876;10.184;2022-09-01T22:18:31;2.97;;;2.10;;
7519;SDS011;3801;48.876;10.184;2022-09-01T22:23:36;1.80;;;1.70;;
7519;SDS011;3801;48.876;10.184;2022-09-01T22:28:40;2.40;;;2.20;;
7519;SDS011;3801;48.876;10.184;2022-09-01T22:33:43;3.83;;;2.17;;
7519;SDS011;3801;48.876;10.184;2022-09-01T22:38:48;2.13;;;1.93;;
7519;SDS011;3801;48.876;10.184;2022-09-01T22:43:52;2.23;;;2.03;;
7519;SDS011;3801;48.876;10.184;2022-09-01T22:48:55;3.00;;;2.00;;
7519;SDS011;3801;48.876;10.184;2022-09-01T22:54:00;2.43;;;2.20;;
7519;SDS011;3801;48.876;10.184;2022-09-01T22:59:05;2.50;;;2.30;;
7519;SDS011;3801;48.876;10.184;2022-09-01T23:04:09;2.40;;;2.00;;
7519;SDS011;3801;48.876;10.184;2022-09-01T23:09:15;2.37;;;2.07;;
7519;SDS011;3801;48.876;10.184;2022-09-01T23:14:19;3.73;;;2.07;;
7519;SDS011;3801;48.876;10.184;2022-09-01T23:19:22;2.13;;;1.87;;
7519;SDS011;3801;48.876;10.184;2022-09-01T23:24:27;3.33;;;2.37;;
7519;SDS011;3801;48.876;10.184;2022-09-01T23:29:31;1.90;;;1.77;;
7519;SDS011;3801;48.876;10.184;2022-09-01T23:34:34;2.10;;;1.90;;
7519;SDS011;3801;48.876;10.184;2022-09-01T23:39:39;2.70;;;2.50;;
7519;SDS011;3801;48.876;10.184;2022-09-01T23:44:42;2.87;;;2.30;;
7519;SDS011;3801;48.876;10.184;2022-09-01T23:49:46;2.57;;;2.07;;
7519;SDS011;3801;48.876;10.184;2022-09-01T23:54:50;2.50;;;2.10;;
7519;SDS011;3801;48.876;10.184;2022-09-01T23:59:54;5.20;;;2.00;;
